sensor_id;sensor_type;location;lat;lon;timestamp;P1;durP1;ratioP1;P2;durP2;ratioP2
72369;SDS011;60343;-32.030;115.880;2023-10-08T00:02:17;12.93;;;2.10;;
72369;SDS011;60343;-32.030;115.880;2023-10-08T00:04:53;12.35;;;2.25;;
72369;SDS011;60343;-32.030;115.880;2023-10-08T00:07:29;11.18;;;2.13;;
72369;SDS011;60343;-32.030;115.880;2023-10-08T00:10:09;13.43;;;2.25;;
72369;SDS011;60343;-32.030;115.880;2023-10-08T00:12:51;10.80;;;2.00;;
72369;SDS011;60343;-32.030;115.880;2023-10-08T00:15:27;14.40;;;2.28;;
72369;SDS011;60343;-32.030;115.880;2023-10-08T00:18:02;10.07;;;2.30;;
72369;SDS011;60343;-32.030;115.880;2023-10-08T00:20:38;10.27;;;2.30;;
72369;SDS011;60343;-32.030;115.880;2023-10-08T00:23:24;16.27;;;2.60;;
72369;SDS011;60343;-32.030;115.880;2023-10-08T00:26:01;10.43;;;2.00;;
72369;SDS011;60343;-32.030;115.880;2023-10-08T00:28:42;11.07;;;2.25;;
72369;SDS011;60343;-32.030;115.880;2023-10-08T00:31:18;9.75;;;1.88;;
72369;SDS011;60343;-32.030;115.880;2023-10-08T00:33:57;11.50;;;2.03;;
72369;SDS011;60343;-32.030;115.880;2023-10-08T00:36:32;9.25;;;2.20;;
72369;SDS011;60343;-32.030;115.880;2023-10-08T00:39:07;10.80;;;2.30;;
72369;SDS011;60343;-32.030;115.880;2023-10-08T00:41:49;9.77;;;2.30;;
72369;SDS011;60343;-32.030;115.880;2023-10-08T00:44:33;10.52;;;2.10;;
72369;SDS011;60343;-32.030;115.880;2023-10-08T00:47:15;8.82;;;1.95;;
72369;SDS011;60343;-32.030;115.880;2023-10-08T00:49:52;14.38;;;2.75;;
72369;SDS011;60343;-32.030;115.880;2023-10-08T00:52:30;10.15;;;2.40;;
72369;SDS011;60343;-32.030;115.880;2023-10-08T00:55:23;9.73;;;2.13;;
72369;SDS011;60343;-32.030;115.880;2023-10-08T01:00:43;12.88;;;2.45;;
72369;SDS011;60343;-32.030;115.880;2023-10-08T01:03:23;8.65;;;1.92;;
72369;SDS011;60343;-32.030;115.880;2023-10-08T01:06:01;10.65;;;2.03;;
72369;SDS011;60343;-32.030;115.880;2023-10-08T01:08:37;10.30;;;2.47;;
72369;SDS011;60343;-32.030;115.880;2023-10-08T01:11:18;13.82;;;2.55;;
72369;SDS011;60343;-32.030;115.880;2023-10-08T01:14:00;10.55;;;2.42;;
72369;SDS011;60343;-32.030;115.880;2023-10-08T01:16:43;9.77;;;2.28;;
72369;SDS011;60343;-32.030;115.880;2023-10-08T01:19:19;10.60;;;1.90;;
72369;SDS011;60343;-32.030;115.880;2023-10-08T01:21:54;13.95;;;3.38;;
72369;SDS011;60343;-32.030;115.880;2023-10-08T01:24:38;9.45;;;1.67;;
72369;SDS011;60343;-32.030;115.880;2023-10-08T01:27:14;9.75;;;2.17;;
72369;SDS011;60343;-32.030;115.880;2023-10-08T01:29:53;10.65;;;2.30;;
72369;SDS011;60343;-32.030;115.880;2023-10-08T01:32:36;9.55;;;1.85;;
72369;SDS011;60343;-32.030;115.880;2023-10-08T01:35:11;8.63;;;1.90;;
72369;SDS011;60343;-32.030;115.880;2023-10-08T01:37:54;16.10;;;2.72;;
72369;SDS011;60343;-32.030;115.880;2023-10-08T01:40:38;9.98;;;2.03;;
72369;SDS011;60343;-32.030;115.880;2023-10-08T01:43:17;15.00;;;2.28;;
72369;SDS011;60343;-32.030;115.880;2023-10-08T01:45:53;11.45;;;1.95;;
72369;SDS011;60343;-32.030;115.880;2023-10-08T01:48:30;7.80;;;1.83;;
72369;SDS011;60343;-32.030;115.880;2023-10-08T01:51:08;11.30;;;2.50;;
72369;SDS011;60343;-32.030;115.880;2023-10-08T01:53:51;11.55;;;2.47;;
72369;SDS011;60343;-32.030;115.880;2023-10-08T01:56:34;11.00;;;2.17;;
72369;SDS011;60343;-32.030;115.880;2023-10-08T01:59:11;8.50;;;2.13;;
72369;SDS011;60343;-32.030;115.880;2023-10-08T02:01:50;13.88;;;2.60;;
72369;SDS011;60343;-32.030;115.880;2023-10-08T02:04:25;14.30;;;2.58;;
72369;SDS011;60343;-32.030;115.880;2023-10-08T02:07:00;10.75;;;2.17;;
72369;SDS011;60343;-32.030;115.880;2023-10-08T02:09:38;9.52;;;2.22;;
72369;SDS011;60343;-32.030;115.880;2023-10-08T02:12:20;8.63;;;2.22;;
72369;SDS011;60343;-32.030;115.880;2023-10-08T02:14:56;8.68;;;2.10;;
72369;SDS011;60343;-32.030;115.880;2023-10-08T02:17:32;9.25;;;2.10;;
72369;SDS011;60343;-32.030;115.880;2023-10-08T02:20:07;9.93;;;2.47;;
72369;SDS011;60343;-32.030;115.880;2023-10-08T02:22:43;15.20;;;2.30;;
72369;SDS011;60343;-32.030;115.880;2023-10-08T02:25:18;9.73;;;2.38;;
72369;SDS011;60343;-32.030;115.880;2023-10-08T02:27:59;12.70;;;2.63;;
72369;SDS011;60343;-32.030;115.880;2023-10-08T02:30:38;12.40;;;2.33;;
72369;SDS011;60343;-32.030;115.880;2023-10-08T02:33:13;9.82;;;2.60;;
72369;SDS011;60343;-32.030;115.880;2023-10-08T02:35:49;13.95;;;2.30;;
72369;SDS011;60343;-32.030;115.880;2023-10-08T02:38:24;13.68;;;2.58;;
72369;SDS011;60343;-32.030;115.880;2023-10-08T02:41:04;8.88;;;2.33;;
72369;SDS011;60343;-32.030;115.880;2023-10-08T02:43:47;12.68;;;2.30;;
72369;SDS011;60343;-32.030;115.880;2023-10-08T02:46:25;9.88;;;2.10;;
72369;SDS011;60343;-32.030;115.880;2023-10-08T02:49:03;16.52;;;2.40;;
72369;SDS011;60343;-32.030;115.880;2023-10-08T02:51:39;10.90;;;2.42;;
72369;SDS011;60343;-32.030;115.880;2023-10-08T02:54:16;8.75;;;2.30;;
72369;SDS011;60343;-32.030;115.880;2023-10-08T02:56:58;11.90;;;2.70;;
72369;SDS011;60343;-32.030;115.880;2023-10-08T02:59:42;13.80;;;2.28;;
72369;SDS011;60343;-32.030;115.880;2023-10-08T03:02:20;8.20;;;2.35;;
72369;SDS011;60343;-32.030;115.880;2023-10-08T03:04:56;10.23;;;2.05;;
72369;SDS011;60343;-32.030;115.880;2023-10-08T03:07:34;9.23;;;2.35;;
72369;SDS011;60343;-32.030;115.880;2023-10-08T03:10:09;11.57;;;2.55;;
72369;SDS011;60343;-32.030;115.880;2023-10-08T03:12:58;10.25;;;2.17;;
72369;SDS011;60343;-32.030;115.880;2023-10-08T03:15:42;12.00;;;2.20;;
72369;SDS011;60343;-32.030;115.880;2023-10-08T03:18:33;11.02;;;2.08;;
72369;SDS011;60343;-32.030;115.880;2023-10-08T03:21:09;13.38;;;2.20;;
72369;SDS011;60343;-32.030;115.880;2023-10-08T03:23:55;10.38;;;2.20;;
72369;SDS011;60343;-32.030;115.880;2023-10-08T03:26:38;7.40;;;1.80;;
72369;SDS011;60343;-32.030;115.880;2023-10-08T03:29:21;11.20;;;2.42;;
72369;SDS011;60343;-32.030;115.880;2023-10-08T03:32:02;9.75;;;2.42;;
72369;SDS011;60343;-32.030;115.880;2023-10-08T03:34:40;9.25;;;2.30;;
72369;SDS011;60343;-32.030;115.880;2023-10-08T03:37:21;10.30;;;2.25;;
72369;SDS011;60343;-32.030;115.880;2023-10-08T03:40:08;7.80;;;2.13;;
72369;SDS011;60343;-32.030;115.880;2023-10-08T03:42:56;10.48;;;2.15;;
72369;SDS011;60343;-32.030;115.880;2023-10-08T03:45:41;12.02;;;2.00;;
72369;SDS011;60343;-32.030;115.880;2023-10-08T03:48:31;7.20;;;1.60;;
72369;SDS011;60343;-32.030;115.880;2023-10-08T03:51:11;6.63;;;1.70;;
72369;SDS011;60343;-32.030;115.880;2023-10-08T03:53:47;7.40;;;1.95;;
72369;SDS011;60343;-32.030;115.880;2023-10-08T03:59:05;11.77;;;2.55;;
72369;SDS011;60343;-32.030;115.880;2023-10-08T04:01:46;8.63;;;2.08;;
72369;SDS011;60343;-32.030;115.880;2023-10-08T04:04:31;7.57;;;1.80;;
72369;SDS011;60343;-32.030;115.880;2023-10-08T04:07:16;8.00;;;2.10;;
72369;SDS011;60343;-32.030;115.880;2023-10-08T04:10:17;9.90;;;1.75;;
72369;SDS011;60343;-32.030;115.880;2023-10-08T04:13:07;11.30;;;2.00;;
72369;SDS011;60343;-32.030;115.880;2023-10-08T04:15:42;8.45;;;2.05;;
72369;SDS011;60343;-32.030;115.880;2023-10-08T04:18:17;9.57;;;2.03;;
72369;SDS011;60343;-32.030;115.880;2023-10-08T04:20:59;8.70;;;1.90;;
72369;SDS011;60343;-32.030;115.880;2023-10-08T04:23:39;9.95;;;2.28;;
72369;SDS011;60343;-32.030;115.880;2023-10-08T04:26:17;9.82;;;2.00;;
72369;SDS011;60343;-32.030;115.880;2023-10-08T04:28:53;7.88;;;1.80;;
72369;SDS011;60343;-32.030;115.880;2023-10-08T04:31:32;10.57;;;1.95;;
72369;SDS011;60343;-32.030;115.880;2023-10-08T04:34:10;9.93;;;1.92;;
72369;SDS011;60343;-32.030;115.880;2023-10-08T04:36:54;7.97;;;1.65;;
72369;SDS011;60343;-32.030;115.880;2023-10-08T04:39:30;12.45;;;2.05;;
72369;SDS011;60343;-32.030;115.880;2023-10-08T04:42:07;8.13;;;1.98;;
72369;SDS011;60343;-32.030;115.880;2023-10-08T04:44:44;9.70;;;2.10;;
72369;SDS011;60343;-32.030;115.880;2023-10-08T04:47:20;11.18;;;1.85;;
72369;SDS011;60343;-32.030;115.880;2023-10-08T04:50:08;10.60;;;2.00;;
72369;SDS011;60343;-32.030;115.880;2023-10-08T04:52:53;7.20;;;1.75;;
72369;SDS011;60343;-32.030;115.880;2023-10-08T04:55:34;8.07;;;1.60;;
72369;SDS011;60343;-32.030;115.880;2023-10-08T04:58:14;8.90;;;1.77;;
72369;SDS011;60343;-32.030;115.880;2023-10-08T05:01:00;9.10;;;1.90;;
72369;SDS011;60343;-32.030;115.880;2023-10-08T05:03:49;12.90;;;1.90;;
72369;SDS011;60343;-32.030;115.880;2023-10-08T05:06:34;6.43;;;1.50;;
72369;SDS011;60343;-32.030;115.880;2023-10-08T05:09:22;8.10;;;1.85;;
72369;SDS011;60343;-32.030;115.880;2023-10-08T05:12:05;7.97;;;1.70;;
72369;SDS011;60343;-32.030;115.880;2023-10-08T05:14:56;8.20;;;1.80;;
72369;SDS011;60343;-32.030;115.880;2023-10-08T05:17:40;8.52;;;1.40;;
72369;SDS011;60343;-32.030;115.880;2023-10-08T05:23:25;7.03;;;1.67;;
72369;SDS011;60343;-32.030;115.880;2023-10-08T05:26:20;7.00;;;1.48;;
72369;SDS011;60343;-32.030;115.880;2023-10-08T05:29:08;7.78;;;1.52;;
72369;SDS011;60343;-32.030;115.880;2023-10-08T05:31:51;8.45;;;1.50;;
72369;SDS011;60343;-32.030;115.880;2023-10-08T05:34:38;7.82;;;1.60;;
72369;SDS011;60343;-32.030;115.880;2023-10-08T05:37:43;8.48;;;1.70;;
72369;SDS011;60343;-32.030;115.880;2023-10-08T05:40:18;7.60;;;1.58;;
72369;SDS011;60343;-32.030;115.880;2023-10-08T05:43:11;15.18;;;3.72;;
72369;SDS011;60343;-32.030;115.880;2023-10-08T05:45:59;9.30;;;1.98;;
72369;SDS011;60343;-32.030;115.880;2023-10-08T05:48:43;11.55;;;1.77;;
72369;SDS011;60343;-32.030;115.880;2023-10-08T05:51:28;7.30;;;1.55;;
72369;SDS011;60343;-32.030;115.880;2023-10-08T05:54:12;6.85;;;1.60;;
72369;SDS011;60343;-32.030;115.880;2023-10-08T05:56:56;7.55;;;1.80;;
72369;SDS011;60343;-32.030;115.880;2023-10-08T05:59:56;10.00;;;1.73;;
72369;SDS011;60343;-32.030;115.880;2023-10-08T06:02:40;9.52;;;1.55;;
72369;SDS011;60343;-32.030;115.880;2023-10-08T06:05:29;10.50;;;1.88;;
72369;SDS011;60343;-32.030;115.880;2023-10-08T06:08:09;5.43;;;1.40;;
72369;SDS011;60343;-32.030;115.880;2023-10-08T06:10:40;10.48;;;1.63;;
72369;SDS011;60343;-32.030;115.880;2023-10-08T06:13:22;11.30;;;1.90;;
72369;SDS011;60343;-32.030;115.880;2023-10-08T06:16:17;9.45;;;1.60;;
72369;SDS011;60343;-32.030;115.880;2023-10-08T06:19:02;6.63;;;1.40;;
72369;SDS011;60343;-32.030;115.880;2023-10-08T06:21:40;8.57;;;1.42;;
72369;SDS011;60343;-32.030;115.880;2023-10-08T06:24:16;9.35;;;1.83;;
72369;SDS011;60343;-32.030;115.880;2023-10-08T06:26:52;10.70;;;1.60;;
72369;SDS011;60343;-32.030;115.880;2023-10-08T06:29:30;7.63;;;1.88;;
72369;SDS011;60343;-32.030;115.880;2023-10-08T06:32:16;7.28;;;1.48;;
72369;SDS011;60343;-32.030;115.880;2023-10-08T06:34:51;8.95;;;1.70;;
72369;SDS011;60343;-32.030;115.880;2023-10-08T06:37:29;11.90;;;1.77;;
72369;SDS011;60343;-32.030;115.880;2023-10-08T06:40:05;8.98;;;1.30;;
72369;SDS011;60343;-32.030;115.880;2023-10-08T06:43:02;10.13;;;1.77;;
72369;SDS011;60343;-32.030;115.880;2023-10-08T06:45:48;12.20;;;1.63;;
72369;SDS011;60343;-32.030;115.880;2023-10-08T06:48:30;10.93;;;1.90;;
72369;SDS011;60343;-32.030;115.880;2023-10-08T06:51:08;10.77;;;1.60;;
72369;SDS011;60343;-32.030;115.880;2023-10-08T06:53:46;7.72;;;1.63;;
72369;SDS011;60343;-32.030;115.880;2023-10-08T06:56:22;9.38;;;1.58;;
72369;SDS011;60343;-32.030;115.880;2023-10-08T06:58:57;7.68;;;1.33;;
72369;SDS011;60343;-32.030;115.880;2023-10-08T07:01:32;9.75;;;1.52;;
72369;SDS011;60343;-32.030;115.880;2023-10-08T07:04:18;7.63;;;1.60;;
72369;SDS011;60343;-32.030;115.880;2023-10-08T07:06:53;8.00;;;1.52;;
72369;SDS011;60343;-32.030;115.880;2023-10-08T07:09:28;8.55;;;1.67;;
72369;SDS011;60343;-32.030;115.880;2023-10-08T07:12:03;8.77;;;1.63;;
72369;SDS011;60343;-32.030;115.880;2023-10-08T07:14:40;8.98;;;1.60;;
72369;SDS011;60343;-32.030;115.880;2023-10-08T07:17:15;7.63;;;1.52;;
72369;SDS011;60343;-32.030;115.880;2023-10-08T07:20:00;11.18;;;1.60;;
72369;SDS011;60343;-32.030;115.880;2023-10-08T07:22:42;7.72;;;1.40;;
72369;SDS011;60343;-32.030;115.880;2023-10-08T07:25:20;8.98;;;1.30;;
72369;SDS011;60343;-32.030;115.880;2023-10-08T07:28:03;8.75;;;1.30;;
72369;SDS011;60343;-32.030;115.880;2023-10-08T07:30:38;8.88;;;1.33;;
72369;SDS011;60343;-32.030;115.880;2023-10-08T07:33:16;7.93;;;1.38;;
72369;SDS011;60343;-32.030;115.880;2023-10-08T07:35:57;8.38;;;1.38;;
72369;SDS011;60343;-32.030;115.880;2023-10-08T07:38:38;7.47;;;1.30;;
72369;SDS011;60343;-32.030;115.880;2023-10-08T07:41:13;7.78;;;1.58;;
72369;SDS011;60343;-32.030;115.880;2023-10-08T07:43:49;5.05;;;0.98;;
72369;SDS011;60343;-32.030;115.880;2023-10-08T07:46:26;7.72;;;1.42;;
72369;SDS011;60343;-32.030;115.880;2023-10-08T07:49:01;8.80;;;1.33;;
72369;SDS011;60343;-32.030;115.880;2023-10-08T07:51:46;8.80;;;1.58;;
72369;SDS011;60343;-32.030;115.880;2023-10-08T07:54:25;7.38;;;1.20;;
72369;SDS011;60343;-32.030;115.880;2023-10-08T07:57:01;8.15;;;1.15;;
72369;SDS011;60343;-32.030;115.880;2023-10-08T07:59:45;8.90;;;1.50;;
72369;SDS011;60343;-32.030;115.880;2023-10-08T08:02:20;7.35;;;1.20;;
72369;SDS011;60343;-32.030;115.880;2023-10-08T08:04:56;6.95;;;1.65;;
72369;SDS011;60343;-32.030;115.880;2023-10-08T08:07:37;8.25;;;1.30;;
72369;SDS011;60343;-32.030;115.880;2023-10-08T08:10:12;6.60;;;1.23;;
72369;SDS011;60343;-32.030;115.880;2023-10-08T08:12:49;8.50;;;1.40;;
72369;SDS011;60343;-32.030;115.880;2023-10-08T08:15:24;7.93;;;1.38;;
72369;SDS011;60343;-32.030;115.880;2023-10-08T08:18:06;8.90;;;1.42;;
72369;SDS011;60343;-32.030;115.880;2023-10-08T08:20:49;9.38;;;1.73;;
72369;SDS011;60343;-32.030;115.880;2023-10-08T08:23:35;6.90;;;1.55;;
72369;SDS011;60343;-32.030;115.880;2023-10-08T08:26:14;12.32;;;1.50;;
72369;SDS011;60343;-32.030;115.880;2023-10-08T08:28:58;8.00;;;1.23;;
72369;SDS011;60343;-32.030;115.880;2023-10-08T08:31:35;8.43;;;1.40;;
72369;SDS011;60343;-32.030;115.880;2023-10-08T08:34:12;8.52;;;1.20;;
72369;SDS011;60343;-32.030;115.880;2023-10-08T08:36:47;8.32;;;1.55;;
72369;SDS011;60343;-32.030;115.880;2023-10-08T08:39:29;9.18;;;1.48;;
72369;SDS011;60343;-32.030;115.880;2023-10-08T08:42:04;6.35;;;1.48;;
72369;SDS011;60343;-32.030;115.880;2023-10-08T08:44:41;8.82;;;1.58;;
72369;SDS011;60343;-32.030;115.880;2023-10-08T08:47:18;6.60;;;1.30;;
72369;SDS011;60343;-32.030;115.880;2023-10-08T08:49:54;4.90;;;1.25;;
72369;SDS011;60343;-32.030;115.880;2023-10-08T08:52:34;9.80;;;1.50;;
72369;SDS011;60343;-32.030;115.880;2023-10-08T08:55:18;8.18;;;1.20;;
72369;SDS011;60343;-32.030;115.880;2023-10-08T08:57:53;8.13;;;1.70;;
72369;SDS011;60343;-32.030;115.880;2023-10-08T09:00:31;6.47;;;1.50;;
72369;SDS011;60343;-32.030;115.880;2023-10-08T09:03:07;10.23;;;1.50;;
72369;SDS011;60343;-32.030;115.880;2023-10-08T09:05:43;8.18;;;1.45;;
72369;SDS011;60343;-32.030;115.880;2023-10-08T09:08:18;10.23;;;1.73;;
72369;SDS011;60343;-32.030;115.880;2023-10-08T09:10:56;7.72;;;1.40;;
72369;SDS011;60343;-32.030;115.880;2023-10-08T09:13:34;8.18;;;1.40;;
72369;SDS011;60343;-32.030;115.880;2023-10-08T09:16:12;11.07;;;1.55;;
72369;SDS011;60343;-32.030;115.880;2023-10-08T09:18:49;8.50;;;1.50;;
72369;SDS011;60343;-32.030;115.880;2023-10-08T09:21:27;11.15;;;1.45;;
72369;SDS011;60343;-32.030;115.880;2023-10-08T09:24:02;9.00;;;1.45;;
72369;SDS011;60343;-32.030;115.880;2023-10-08T09:26:43;5.88;;;1.30;;
72369;SDS011;60343;-32.030;115.880;2023-10-08T09:29:22;10.45;;;1.83;;
72369;SDS011;60343;-32.030;115.880;2023-10-08T09:31:58;7.75;;;1.50;;
72369;SDS011;60343;-32.030;115.880;2023-10-08T09:34:34;8.88;;;1.52;;
72369;SDS011;60343;-32.030;115.880;2023-10-08T09:37:09;9.38;;;1.40;;
72369;SDS011;60343;-32.030;115.880;2023-10-08T09:39:47;8.63;;;1.35;;
72369;SDS011;60343;-32.030;115.880;2023-10-08T09:42:30;9.88;;;1.73;;
72369;SDS011;60343;-32.030;115.880;2023-10-08T09:45:07;9.10;;;1.63;;
72369;SDS011;60343;-32.030;115.880;2023-10-08T09:47:46;6.38;;;1.38;;
72369;SDS011;60343;-32.030;115.880;2023-10-08T09:50:29;13.40;;;1.90;;
72369;SDS011;60343;-32.030;115.880;2023-10-08T09:53:07;10.48;;;1.70;;
72369;SDS011;60343;-32.030;115.880;2023-10-08T09:55:44;8.23;;;1.65;;
72369;SDS011;60343;-32.030;115.880;2023-10-08T09:58:33;6.93;;;1.50;;
72369;SDS011;60343;-32.030;115.880;2023-10-08T10:01:08;12.40;;;1.55;;
72369;SDS011;60343;-32.030;115.880;2023-10-08T10:03:44;5.13;;;1.30;;
72369;SDS011;60343;-32.030;115.880;2023-10-08T10:06:21;6.53;;;1.30;;
72369;SDS011;60343;-32.030;115.880;2023-10-08T10:08:57;7.95;;;1.55;;
72369;SDS011;60343;-32.030;115.880;2023-10-08T10:11:46;7.95;;;1.65;;
72369;SDS011;60343;-32.030;115.880;2023-10-08T10:14:29;8.65;;;1.98;;
72369;SDS011;60343;-32.030;115.880;2023-10-08T10:17:19;7.88;;;1.73;;
72369;SDS011;60343;-32.030;115.880;2023-10-08T10:19:57;9.60;;;1.90;;
72369;SDS011;60343;-32.030;115.880;2023-10-08T10:22:39;8.05;;;1.77;;
72369;SDS011;60343;-32.030;115.880;2023-10-08T10:25:16;8.10;;;1.65;;
72369;SDS011;60343;-32.030;115.880;2023-10-08T10:28:22;9.90;;;1.58;;
72369;SDS011;60343;-32.030;115.880;2023-10-08T10:31:05;8.75;;;1.80;;
72369;SDS011;60343;-32.030;115.880;2023-10-08T10:33:51;7.00;;;1.50;;
72369;SDS011;60343;-32.030;115.880;2023-10-08T10:36:32;10.57;;;1.58;;
72369;SDS011;60343;-32.030;115.880;2023-10-08T10:39:16;8.15;;;1.52;;
72369;SDS011;60343;-32.030;115.880;2023-10-08T10:42:00;10.57;;;1.60;;
72369;SDS011;60343;-32.030;115.880;2023-10-08T10:44:47;7.72;;;1.60;;
72369;SDS011;60343;-32.030;115.880;2023-10-08T10:47:30;8.18;;;1.70;;
72369;SDS011;60343;-32.030;115.880;2023-10-08T10:50:14;9.60;;;1.83;;
72369;SDS011;60343;-32.030;115.880;2023-10-08T10:52:53;7.13;;;1.42;;
72369;SDS011;60343;-32.030;115.880;2023-10-08T10:55:23;10.10;;;1.90;;
72369;SDS011;60343;-32.030;115.880;2023-10-08T10:58:04;6.28;;;1.70;;
72369;SDS011;60343;-32.030;115.880;2023-10-08T11:00:42;8.30;;;1.80;;
72369;SDS011;60343;-32.030;115.880;2023-10-08T11:03:31;6.75;;;1.85;;
72369;SDS011;60343;-32.030;115.880;2023-10-08T11:06:08;6.78;;;2.10;;
72369;SDS011;60343;-32.030;115.880;2023-10-08T11:08:49;8.52;;;1.85;;
72369;SDS011;60343;-32.030;115.880;2023-10-08T11:11:26;8.90;;;2.15;;
72369;SDS011;60343;-32.030;115.880;2023-10-08T11:14:02;11.65;;;1.80;;
72369;SDS011;60343;-32.030;115.880;2023-10-08T11:16:43;11.48;;;2.15;;
72369;SDS011;60343;-32.030;115.880;2023-10-08T11:19:25;12.48;;;2.03;;
72369;SDS011;60343;-32.030;115.880;2023-10-08T11:22:01;9.05;;;1.85;;
72369;SDS011;60343;-32.030;115.880;2023-10-08T11:24:42;10.68;;;1.85;;
72369;SDS011;60343;-32.030;115.880;2023-10-08T11:27:20;9.90;;;2.10;;
72369;SDS011;60343;-32.030;115.880;2023-10-08T11:30:05;9.65;;;2.13;;
72369;SDS011;60343;-32.030;115.880;2023-10-08T11:32:43;10.45;;;1.67;;
72369;SDS011;60343;-32.030;115.880;2023-10-08T11:35:25;8.57;;;2.20;;
72369;SDS011;60343;-32.030;115.880;2023-10-08T11:38:01;8.82;;;2.00;;
72369;SDS011;60343;-32.030;115.880;2023-10-08T11:40:46;10.05;;;1.65;;
72369;SDS011;60343;-32.030;115.880;2023-10-08T11:43:23;6.68;;;1.80;;
72369;SDS011;60343;-32.030;115.880;2023-10-08T11:46:01;7.75;;;2.05;;
72369;SDS011;60343;-32.030;115.880;2023-10-08T11:48:40;7.80;;;1.80;;
72369;SDS011;60343;-32.030;115.880;2023-10-08T11:51:22;8.40;;;1.50;;
72369;SDS011;60343;-32.030;115.880;2023-10-08T11:53:59;6.47;;;1.65;;
72369;SDS011;60343;-32.030;115.880;2023-10-08T11:56:38;9.43;;;2.00;;
72369;SDS011;60343;-32.030;115.880;2023-10-08T11:59:13;8.10;;;1.65;;
72369;SDS011;60343;-32.030;115.880;2023-10-08T12:01:51;7.22;;;1.60;;
72369;SDS011;60343;-32.030;115.880;2023-10-08T12:04:28;7.40;;;1.73;;
72369;SDS011;60343;-32.030;115.880;2023-10-08T12:07:09;5.72;;;1.50;;
72369;SDS011;60343;-32.030;115.880;2023-10-08T12:09:45;11.02;;;1.90;;
72369;SDS011;60343;-32.030;115.880;2023-10-08T12:12:22;6.10;;;1.63;;
72369;SDS011;60343;-32.030;115.880;2023-10-08T12:14:58;9.70;;;1.92;;
72369;SDS011;60343;-32.030;115.880;2023-10-08T12:17:34;6.13;;;1.75;;
72369;SDS011;60343;-32.030;115.880;2023-10-08T12:20:10;5.25;;;1.58;;
72369;SDS011;60343;-32.030;115.880;2023-10-08T12:22:55;7.18;;;1.75;;
72369;SDS011;60343;-32.030;115.880;2023-10-08T12:25:32;8.95;;;2.10;;
72369;SDS011;60343;-32.030;115.880;2023-10-08T12:28:17;6.57;;;1.60;;
72369;SDS011;60343;-32.030;115.880;2023-10-08T12:30:53;7.85;;;1.55;;
72369;SDS011;60343;-32.030;115.880;2023-10-08T12:33:29;7.30;;;1.95;;
72369;SDS011;60343;-32.030;115.880;2023-10-08T12:36:06;5.07;;;1.70;;
72369;SDS011;60343;-32.030;115.880;2023-10-08T12:38:49;7.95;;;1.80;;
72369;SDS011;60343;-32.030;115.880;2023-10-08T12:41:34;6.55;;;1.45;;
72369;SDS011;60343;-32.030;115.880;2023-10-08T12:44:10;5.47;;;1.70;;
72369;SDS011;60343;-32.030;115.880;2023-10-08T12:46:45;8.95;;;1.92;;
72369;SDS011;60343;-32.030;115.880;2023-10-08T12:49:22;9.20;;;1.80;;
72369;SDS011;60343;-32.030;115.880;2023-10-08T12:52:00;4.88;;;1.60;;
72369;SDS011;60343;-32.030;115.880;2023-10-08T12:54:41;7.72;;;1.60;;
72369;SDS011;60343;-32.030;115.880;2023-10-08T12:57:19;7.43;;;1.70;;
72369;SDS011;60343;-32.030;115.880;2023-10-08T12:59:59;6.90;;;1.83;;
72369;SDS011;60343;-32.030;115.880;2023-10-08T13:02:34;6.15;;;1.83;;
72369;SDS011;60343;-32.030;115.880;2023-10-08T13:05:16;11.75;;;2.05;;
72369;SDS011;60343;-32.030;115.880;2023-10-08T13:07:56;6.38;;;1.70;;
72369;SDS011;60343;-32.030;115.880;2023-10-08T13:10:42;9.15;;;1.90;;
72369;SDS011;60343;-32.030;115.880;2023-10-08T13:13:18;6.68;;;1.70;;
72369;SDS011;60343;-32.030;115.880;2023-10-08T13:15:53;7.35;;;1.90;;
72369;SDS011;60343;-32.030;115.880;2023-10-08T13:18:33;6.22;;;1.88;;
72369;SDS011;60343;-32.030;115.880;2023-10-08T13:21:09;7.30;;;1.83;;
72369;SDS011;60343;-32.030;115.880;2023-10-08T13:23:45;7.55;;;2.20;;
72369;SDS011;60343;-32.030;115.880;2023-10-08T13:26:29;9.73;;;2.28;;
72369;SDS011;60343;-32.030;115.880;2023-10-08T13:29:05;7.00;;;1.83;;
72369;SDS011;60343;-32.030;115.880;2023-10-08T13:31:40;5.38;;;1.85;;
72369;SDS011;60343;-32.030;115.880;2023-10-08T13:34:17;8.80;;;1.80;;
72369;SDS011;60343;-32.030;115.880;2023-10-08T13:36:52;7.65;;;1.85;;
72369;SDS011;60343;-32.030;115.880;2023-10-08T13:39:28;7.60;;;2.00;;
72369;SDS011;60343;-32.030;115.880;2023-10-08T13:42:12;6.63;;;1.95;;
72369;SDS011;60343;-32.030;115.880;2023-10-08T13:44:47;7.80;;;2.08;;
72369;SDS011;60343;-32.030;115.880;2023-10-08T13:47:24;10.32;;;2.10;;
72369;SDS011;60343;-32.030;115.880;2023-10-08T13:49:59;7.47;;;2.33;;
72369;SDS011;60343;-32.030;115.880;2023-10-08T13:52:37;7.53;;;2.00;;
72369;SDS011;60343;-32.030;115.880;2023-10-08T13:55:12;6.10;;;1.90;;
72369;SDS011;60343;-32.030;115.880;2023-10-08T13:57:57;7.85;;;1.85;;
72369;SDS011;60343;-32.030;115.880;2023-10-08T14:00:34;7.93;;;1.98;;
72369;SDS011;60343;-32.030;115.880;2023-10-08T14:03:11;7.63;;;1.85;;
72369;SDS011;60343;-32.030;115.880;2023-10-08T14:05:48;6.63;;;1.73;;
72369;SDS011;60343;-32.030;115.880;2023-10-08T14:08:26;5.20;;;1.65;;
72369;SDS011;60343;-32.030;115.880;2023-10-08T14:11:01;6.60;;;1.67;;
72369;SDS011;60343;-32.030;115.880;2023-10-08T14:13:45;4.53;;;1.60;;
72369;SDS011;60343;-32.030;115.880;2023-10-08T14:16:20;5.80;;;1.83;;
72369;SDS011;60343;-32.030;115.880;2023-10-08T14:18:55;4.72;;;1.70;;
72369;SDS011;60343;-32.030;115.880;2023-10-08T14:21:31;8.15;;;1.77;;
72369;SDS011;60343;-32.030;115.880;2023-10-08T14:24:16;7.82;;;2.13;;
72369;SDS011;60343;-32.030;115.880;2023-10-08T14:26:53;7.35;;;2.33;;
72369;SDS011;60343;-32.030;115.880;2023-10-08T14:29:35;6.65;;;1.90;;
72369;SDS011;60343;-32.030;115.880;2023-10-08T14:32:16;5.38;;;1.60;;
72369;SDS011;60343;-32.030;115.880;2023-10-08T14:34:53;7.85;;;2.30;;
72369;SDS011;60343;-32.030;115.880;2023-10-08T14:37:36;7.35;;;1.80;;
72369;SDS011;60343;-32.030;115.880;2023-10-08T14:40:19;6.60;;;1.85;;
72369;SDS011;60343;-32.030;115.880;2023-10-08T14:43:02;8.98;;;1.90;;
72369;SDS011;60343;-32.030;115.880;2023-10-08T14:45:43;5.22;;;1.70;;
72369;SDS011;60343;-32.030;115.880;2023-10-08T14:48:19;5.43;;;2.00;;
72369;SDS011;60343;-32.030;115.880;2023-10-08T14:50:55;9.38;;;2.30;;
72369;SDS011;60343;-32.030;115.880;2023-10-08T14:53:33;9.13;;;2.10;;
72369;SDS011;60343;-32.030;115.880;2023-10-08T14:56:08;11.98;;;2.53;;
72369;SDS011;60343;-32.030;115.880;2023-10-08T14:58:46;7.97;;;2.20;;
72369;SDS011;60343;-32.030;115.880;2023-10-08T15:01:27;9.82;;;2.20;;
72369;SDS011;60343;-32.030;115.880;2023-10-08T15:04:02;5.40;;;1.88;;
72369;SDS011;60343;-32.030;115.880;2023-10-08T15:06:37;8.00;;;2.00;;
72369;SDS011;60343;-32.030;115.880;2023-10-08T15:09:13;6.03;;;2.03;;
72369;SDS011;60343;-32.030;115.880;2023-10-08T15:11:51;6.15;;;2.10;;
72369;SDS011;60343;-32.030;115.880;2023-10-08T15:14:27;5.82;;;2.00;;
72369;SDS011;60343;-32.030;115.880;2023-10-08T15:17:10;8.68;;;2.00;;
72369;SDS011;60343;-32.030;115.880;2023-10-08T15:19:45;8.32;;;1.98;;
72369;SDS011;60343;-32.030;115.880;2023-10-08T15:22:22;7.25;;;2.20;;
72369;SDS011;60343;-32.030;115.880;2023-10-08T15:24:58;8.52;;;2.20;;
72369;SDS011;60343;-32.030;115.880;2023-10-08T15:27:33;8.05;;;2.30;;